EW5545 Acquaviva Delle Fonti IT current weather conditions

sailwx.info

Wind from 212 at 0 knots gusting 1

Air temperature 25.6° C
Dewpoint 19.0° C

Last reported at 2020-Aug-15 19:10 UTC.
Time now 2020-Aug-15 19:59 UTC

Location: N 40°53' E 016°51'.
View on Google Maps.

See reports from other nearby stations

  
Tides and Currents Weather Stations Pressure Air Temp Water Temp Dewpoint Dewpoint Depression Visibility Wind Speed Wind Dir Waves Ship Positions
date/time (UTC)wind fromknots sea level pressurealtimeterstation pressurevisibilityair tempwater tempwave heightnotes
2020-Aug-15 19:10 212 0 gusting 1 25.6
2020-Aug-15 19:05 342 25.6
2020-Aug-15 19:00 018 0 gusting 1 25.6
2020-Aug-15 18:55 022 1 gusting 4 25.6
2020-Aug-15 18:50 031 25.6
2020-Aug-15 18:45 028 0 gusting 2 26.1
2020-Aug-15 18:35 020 0 gusting 2 25.6
2020-Aug-15 18:25 039 0 gusting 2 26.1
2020-Aug-15 18:20 023 1 gusting 2 26.1
2020-Aug-15 18:10 018 0 gusting 2 26.1
2020-Aug-15 18:05 017 0 gusting 2 26.1
2020-Aug-15 18:00 027 0 gusting 2 26.1
2020-Aug-15 17:55 028 2 gusting 4 26.1
2020-Aug-15 17:50 029 1 gusting 4 26.1
2020-Aug-15 17:45 029 2 gusting 5 26.1
2020-Aug-15 17:35 030 3 gusting 6 26.7
2020-Aug-15 17:30 028 0 gusting 5 26.7
2020-Aug-15 17:25 032 1 gusting 5 26.7
2020-Aug-15 17:20 025 3 gusting 6 26.7
2020-Aug-15 17:15 022 4 gusting 6 26.7
2020-Aug-15 17:10 028 2 gusting 6 27.2
2020-Aug-15 17:05 027 3 gusting 7 26.7
2020-Aug-15 16:55 024 3 gusting 7 27.2
2020-Aug-15 16:50 028 3 gusting 7 27.2
2020-Aug-15 16:40 021 3 gusting 7 27.8
2020-Aug-15 16:35 027 3 gusting 6 27.8
2020-Aug-15 16:25 030 5 gusting 10 27.8
2020-Aug-15 16:20 032 4 gusting 7 28.3
2020-Aug-15 16:15 027 4 gusting 7 28.3
2020-Aug-15 16:10 028 4 gusting 6 28.3
2020-Aug-15 16:05 025 5 gusting 7 28.3
2020-Aug-15 16:00 018 3 gusting 6 28.9
2020-Aug-15 15:55 027 3 gusting 8 29.4
2020-Aug-15 15:45 033 5 gusting 10 29.4
2020-Aug-15 15:35 029 5 gusting 10 30.0
2020-Aug-15 15:30 023 3 gusting 6 30.0
2020-Aug-15 15:25 026 2 gusting 5 30.0
2020-Aug-15 15:20 027 4 gusting 11 29.4
2020-Aug-15 15:15 031 6 gusting 11 30.0
2020-Aug-15 15:10 028 5 gusting 10 30.0
2020-Aug-15 15:05 029 5 gusting 11 30.0
2020-Aug-15 14:55 032 5 gusting 10 30.6
2020-Aug-15 14:50 022 4 gusting 10 30.6
2020-Aug-15 14:45 032 6 gusting 10 30.6
2020-Aug-15 14:40 013 3 gusting 10 30.6
2020-Aug-15 14:35 029 4 gusting 10 30.6
2020-Aug-15 14:30 034 4 gusting 11 30.6
2020-Aug-15 14:25 025 4 gusting 12 30.0
2020-Aug-15 14:20 029 3 gusting 12 30.6
2020-Aug-15 14:15 033 6 gusting 11 30.0
2020-Aug-15 14:10 022 5 gusting 12 30.6
2020-Aug-15 14:05 031 6 gusting 12 30.6
2020-Aug-15 13:55 027 6 gusting 12 30.6
2020-Aug-15 13:50 030 6 gusting 12 31.1
2020-Aug-15 13:40 026 6 gusting 11 31.7
2020-Aug-15 13:30 025 4 gusting 10 31.7
2020-Aug-15 13:25 037 6 gusting 10 31.7
2020-Aug-15 13:20 028 6 gusting 10 31.7
2020-Aug-15 13:15 029 6 gusting 10 31.7
2020-Aug-15 13:10 029 5 gusting 10 31.7
2020-Aug-15 13:05 032 4 gusting 11 31.7
2020-Aug-15 12:55 030 7 gusting 13 31.7
2020-Aug-15 12:45 025 5 gusting 11 31.7
2020-Aug-15 12:35 010 3 gusting 10 31.7
2020-Aug-15 12:30 024 5 gusting 12 31.7
2020-Aug-15 12:25 017 5 gusting 11 31.7
2020-Aug-15 12:20 023 5 gusting 13 31.7
2020-Aug-15 12:15 023 4 gusting 11 31.7
2020-Aug-15 12:10 025 4 gusting 8 31.7
2020-Aug-15 12:05 026 5 gusting 10 31.7
2020-Aug-15 12:00 031 4 gusting 6 31.7
2020-Aug-15 11:50 032 6 gusting 11 31.7
2020-Aug-15 11:45 027 4 gusting 10 31.7
2020-Aug-15 11:40 014 3 gusting 7 31.7
2020-Aug-15 11:30 352 4 gusting 7 31.7
2020-Aug-15 11:25 024 4 gusting 10 32.2
2020-Aug-15 11:20 020 2 gusting 8 31.7
2020-Aug-15 11:15 036 5 gusting 13 31.7
2020-Aug-15 11:10 027 6 gusting 10 31.7
2020-Aug-15 11:05 032 4 gusting 8 31.7
2020-Aug-15 11:00 011 2 gusting 8 32.2
2020-Aug-15 10:55 305 4 gusting 7 31.7
2020-Aug-15 10:50 025 5 gusting 7 31.7
2020-Aug-15 10:45 001 3 gusting 6 31.7
2020-Aug-15 10:40 029 3 gusting 8 31.7
2020-Aug-15 10:35 017 5 gusting 8 31.7
2020-Aug-15 10:30 313 4 gusting 11 31.7
2020-Aug-15 10:25 026 4 gusting 11 31.7
2020-Aug-15 10:20 025 5 gusting 13 31.7
2020-Aug-15 10:15 344 2 gusting 8 31.7
2020-Aug-15 10:10 029 4 gusting 11 31.7
2020-Aug-15 10:05 351 4 gusting 6 31.7
2020-Aug-15 09:55 025 5 gusting 10 31.7
2020-Aug-15 09:45 015 2 gusting 5 31.7
2020-Aug-15 09:35 339 1 gusting 5 31.1
2020-Aug-15 09:30 031 2 gusting 8 31.1
2020-Aug-15 09:25 281 3 gusting 8 31.1
2020-Aug-15 09:20 017 3 gusting 7 30.6
2020-Aug-15 09:15 297 4 gusting 7 30.6
2020-Aug-15 09:10 022 4 gusting 6 30.6
2020-Aug-15 09:05 034 3 gusting 7 30.6
2020-Aug-15 09:00 012 6 gusting 10 30.6
2020-Aug-15 08:55 018 3 gusting 8 30.0
2020-Aug-15 08:50 029 4 gusting 8 30.0
2020-Aug-15 08:45 355 1 gusting 10 30.0
2020-Aug-15 08:40 025 3 gusting 6 30.0
2020-Aug-15 08:35 341 2 gusting 7 30.0
2020-Aug-15 08:25 028 4 gusting 7 29.4
2020-Aug-15 08:20 001 3 gusting 7 30.0
2020-Aug-15 08:15 29.4
2020-Aug-15 08:10 025 2 gusting 8 29.4
2020-Aug-15 08:05 037 2 gusting 8 29.4
2020-Aug-15 08:00 029 4 gusting 8 29.4
2020-Aug-15 07:55 357 4 gusting 8 29.4
2020-Aug-15 07:50 016 4 gusting 6 29.4
2020-Aug-15 07:45 030 3 gusting 6 28.9
2020-Aug-15 07:40 033 3 gusting 6 28.9
2020-Aug-15 07:35 022 3 gusting 7 28.9
2020-Aug-15 07:30 28.9
2020-Aug-15 07:25 035 2 gusting 7 28.9
2020-Aug-15 07:20 027 3 gusting 5 28.3
2020-Aug-15 07:10 025 2 gusting 6 28.3
2020-Aug-15 07:05 025 3 gusting 5 28.3
2020-Aug-15 07:00 007 1 gusting 5 28.3
2020-Aug-15 06:55 340 3 gusting 4 28.3
2020-Aug-15 06:50 032 0 gusting 1 27.8
2020-Aug-15 06:40 027 2 gusting 6 27.8
2020-Aug-15 06:35 029 2 gusting 6 27.8
2020-Aug-15 06:30 027 2 gusting 5 27.8
2020-Aug-15 06:25 280 2 gusting 4 27.8
2020-Aug-15 06:20 293 2 gusting 5 27.2
2020-Aug-15 06:15 029 2 gusting 5 27.2
2020-Aug-15 06:10 316 0 gusting 2 27.2
2020-Aug-15 06:05 234 1 gusting 2 27.2
2020-Aug-15 05:55 257 1 gusting 4 26.7
2020-Aug-15 05:50 257 0 gusting 2 26.7
2020-Aug-15 05:40 235 0 gusting 2 26.1
2020-Aug-15 05:35 238 1 gusting 2 26.1
2020-Aug-15 05:25 257 0 gusting 2 25.6
2020-Aug-15 05:20 249 2 gusting 4 25.6
2020-Aug-15 05:15 230 1 gusting 4 25.6
2020-Aug-15 05:10 277 1 gusting 5 25.0
2020-Aug-15 05:05 257 1 gusting 4 25.0
2020-Aug-15 05:00 271 0 gusting 2 24.4
2020-Aug-15 04:55 228 0 gusting 2 24.4
2020-Aug-15 04:50 223 0 gusting 2 24.4
2020-Aug-15 04:45 237 0 gusting 2 24.4
2020-Aug-15 04:40 235 1 gusting 2 24.4
2020-Aug-15 04:35 240 1 gusting 4 24.4
2020-Aug-15 04:25 236 0 gusting 2 24.4
2020-Aug-15 04:20 239 2 gusting 5 24.4
2020-Aug-15 04:15 241 3 gusting 5 24.4
2020-Aug-15 04:10 249 2 gusting 5 24.4
2020-Aug-15 04:05 245 2 gusting 5 24.4
2020-Aug-15 04:00 242 2 gusting 5 23.9
2020-Aug-15 03:55 239 1 gusting 4 23.9
2020-Aug-15 03:50 241 1 gusting 2 23.3
2020-Aug-15 03:40 178 23.3
2020-Aug-15 03:35 178 0 gusting 2 23.9
2020-Aug-15 03:30 209 0 gusting 1 24.4
2020-Aug-15 03:25 208 0 gusting 1 24.4
2020-Aug-15 03:20 325 25.0
2020-Aug-15 03:15 217 25.0
2020-Aug-15 03:10 269 0 gusting 2 25.0
2020-Aug-15 03:05 337 1 gusting 2 25.0
2020-Aug-15 02:55 027 1 gusting 2 25.0
2020-Aug-15 02:30 282 0 gusting 4 25.6
2020-Aug-15 02:25 335 1 gusting 5 26.1
2020-Aug-15 02:15 165 0 gusting 2 26.1
2020-Aug-15 02:10 357 0 gusting 2 26.1
2020-Aug-15 02:05 004 0 gusting 2 26.1
2020-Aug-15 02:00 239 1 gusting 4 26.1
2020-Aug-15 01:50 243 1 gusting 2 25.6
2020-Aug-15 01:45 260 1 gusting 2 25.6
2020-Aug-15 01:40 209 0 gusting 0 25.6
2020-Aug-15 01:35 194 0 gusting 2 26.1
2020-Aug-15 01:30 250 1 gusting 2 26.1
2020-Aug-15 01:25 241 1 gusting 6 26.1
2020-Aug-15 01:20 239 2 gusting 6 26.1
2020-Aug-15 01:15 240 2 gusting 5 26.1
2020-Aug-15 01:05 275 0 gusting 4 25.6
2020-Aug-15 01:00 249 1 gusting 4 24.4
2020-Aug-15 00:55 117 24.4
2020-Aug-15 00:45 117 24.4
2020-Aug-15 00:40 177 0 gusting 1 24.4
2020-Aug-15 00:35 168 0 gusting 1 24.4
2020-Aug-15 00:30 189 23.9
2020-Aug-15 00:25 189 24.4
2020-Aug-15 00:15 181 24.4
2020-Aug-15 00:10 180 24.4
2020-Aug-15 00:05 181 24.4
2020-Aug-15 00:00 181 0 gusting 0 25.0
2020-Aug-14 23:55 259 25.0
2020-Aug-14 23:45 248 25.6
2020-Aug-14 23:40 246 0 gusting 1 25.6
2020-Aug-14 23:35 239 0 gusting 2 25.6
2020-Aug-14 23:30 238 0 gusting 2 25.6
2020-Aug-14 23:25 227 1 gusting 2 25.6
2020-Aug-14 23:15 247 1 gusting 2 25.6
2020-Aug-14 23:10 260 0 gusting 2 25.6
2020-Aug-14 23:05 243 2 gusting 4 25.6
2020-Aug-14 22:55 264 2 gusting 4 25.6
2020-Aug-14 22:45 258 0 gusting 4 25.6
2020-Aug-14 22:35 225 2 gusting 6 25.6
2020-Aug-14 22:25 210 1 gusting 4 25.6
2020-Aug-14 22:20 220 1 gusting 2 25.6
2020-Aug-14 22:15 229 2 gusting 4 25.6
2020-Aug-14 22:05 217 0 gusting 2 25.6
2020-Aug-14 22:00 249 1 gusting 2 25.6
2020-Aug-14 21:55 248 1 gusting 2 25.6
2020-Aug-14 21:45 234 2 gusting 4 25.6
2020-Aug-14 21:40 220 2 gusting 4 25.6
2020-Aug-14 21:35 220 3 gusting 6 25.6
2020-Aug-14 21:30 215 2 gusting 6 25.6
2020-Aug-14 21:25 219 2 gusting 5 25.0
2020-Aug-14 21:15 199 0 gusting 2 25.0
2020-Aug-14 21:10 178 1 gusting 2 25.0
2020-Aug-14 21:05 127 25.0
2020-Aug-14 21:00 189 25.0
2020-Aug-14 20:55 189 25.0
2020-Aug-14 20:50 189 25.0
2020-Aug-14 20:45 191 25.0
2020-Aug-14 20:35 133 0 gusting 2 25.6
2020-Aug-14 20:25 145 0 gusting 1 25.6
2020-Aug-14 20:20 131 0 gusting 1 25.6
2020-Aug-14 20:15 133 1 gusting 2 25.6
2020-Aug-14 20:05 206 0 gusting 4 25.6
2020-Aug-14 19:55 199 4 gusting 6 25.6
2020-Aug-14 19:50 189 4 gusting 7 26.1
2020-Aug-14 19:40 178 4 gusting 7 26.1
2020-Aug-14 19:30 186 5 gusting 10 26.1
2020-Aug-14 19:25 186 6 gusting 13 26.1
2020-Aug-14 19:15 181 7 gusting 11 26.7
2020-Aug-14 19:05 191 6 gusting 10 26.7
2020-Aug-14 18:55 194 5 gusting 10 27.2
2020-Aug-14 18:45 180 5 gusting 6 27.2
2020-Aug-14 18:40 177 5 gusting 10 27.8
2020-Aug-14 18:35 188 5 gusting 11 27.8
2020-Aug-14 18:30 165 4 gusting 8 27.8
2020-Aug-14 18:25 163 6 gusting 12 27.8
2020-Aug-14 18:15 176 5 gusting 11 28.3
2020-Aug-14 18:05 145 6 gusting 11 28.3
2020-Aug-14 17:55 168 5 gusting 8 28.3
2020-Aug-14 17:50 162 6 gusting 11 28.9
2020-Aug-14 17:45 164 5 gusting 10 28.9
2020-Aug-14 17:35 166 4 gusting 11 29.4
2020-Aug-14 17:30 151 5 gusting 10 29.4
2020-Aug-14 17:25 149 3 gusting 12 29.4
2020-Aug-14 17:20 152 5 gusting 11 29.4
2020-Aug-14 17:15 152 6 gusting 12 30.0
2020-Aug-14 17:05 148 5 gusting 10 30.6
2020-Aug-14 17:00 159 6 gusting 12 30.6
2020-Aug-14 16:55 181 7 gusting 13 30.6
2020-Aug-14 16:50 152 7 gusting 13 30.6
2020-Aug-14 16:45 151 6 gusting 14 30.6
2020-Aug-14 16:35 179 6 gusting 13 31.1
2020-Aug-14 16:25 154 10 gusting 17 31.7
2020-Aug-14 16:15 182 8 gusting 15 31.7
2020-Aug-14 16:10 180 10 gusting 17 31.7
2020-Aug-14 15:55 182 10 gusting 19 32.2
2020-Aug-14 15:50 176 6 gusting 13 32.8
2020-Aug-14 15:40 177 10 gusting 13 32.8
2020-Aug-14 15:35 174 10 gusting 20 32.8
2020-Aug-14 15:30 175 8 gusting 20 33.3
2020-Aug-14 15:25 177 7 gusting 15 33.3
2020-Aug-14 15:15 188 11 gusting 19 33.9
2020-Aug-14 15:05 151 6 gusting 11 34.4
2020-Aug-14 14:55 185 10 gusting 14 34.4
2020-Aug-14 14:45 185 6 gusting 13 35.0
2020-Aug-14 14:40 172 6 gusting 10 35.0
2020-Aug-14 14:35 145 4 gusting 10 35.0
2020-Aug-14 14:30 141 7 gusting 13 34.4
2020-Aug-14 14:25 094 4 gusting 10 35.0
2020-Aug-14 14:20 043 4 gusting 13 35.0
2020-Aug-14 14:10 127 6 gusting 14 35.0
2020-Aug-14 14:05 130 6 gusting 14 35.0
2020-Aug-14 13:55 131 8 gusting 12 35.0
2020-Aug-14 13:50 183 8 gusting 12 35.0
2020-Aug-14 13:45 168 7 gusting 11 35.6
2020-Aug-14 13:35 161 5 gusting 13 35.6
2020-Aug-14 13:30 133 8 gusting 15 35.6
2020-Aug-14 13:25 157 7 gusting 12 36.1
2020-Aug-14 13:20 175 6 gusting 11 36.1
2020-Aug-14 13:15 088 6 gusting 12 36.7
2020-Aug-14 13:10 159 6 gusting 10 36.1
2020-Aug-14 13:05 187 7 gusting 13 36.1
2020-Aug-14 12:55 184 6 gusting 11 36.7
2020-Aug-14 12:45 169 2 gusting 6 37.2
2020-Aug-14 12:40 138 4 gusting 11 36.7
2020-Aug-14 12:35 191 6 gusting 11 37.2
2020-Aug-14 12:30 065 2 gusting 7 37.2
2020-Aug-14 12:25 055 2 gusting 7 36.7
2020-Aug-14 12:20 180 5 gusting 10 36.7
2020-Aug-14 12:15 112 1 gusting 5 36.7
2020-Aug-14 12:10 037 3 gusting 6 36.7
2020-Aug-14 12:05 030 3 gusting 6 37.2
2020-Aug-14 12:00 229 0 gusting 2 37.2
2020-Aug-14 11:55 044 2 gusting 5 37.2
2020-Aug-14 11:50 099 1 gusting 5 37.2
2020-Aug-14 11:45 147 1 gusting 5 37.2
2020-Aug-14 11:35 208 1 gusting 5 37.2
2020-Aug-14 11:30 165 2 gusting 5 37.2
2020-Aug-14 11:25 060 3 gusting 7 36.7
2020-Aug-14 11:20 298 1 gusting 5 36.7
2020-Aug-14 11:15 004 2 gusting 6 36.7
2020-Aug-14 11:05 226 2 gusting 4 36.7
2020-Aug-14 11:00 062 1 gusting 5 36.1
2020-Aug-14 10:50 007 2 gusting 6 36.1
2020-Aug-14 10:40 144 2 gusting 5 36.1
2020-Aug-14 10:35 239 2 gusting 10 36.1
2020-Aug-14 10:25 241 1 gusting 2 35.6
2020-Aug-14 10:20 039 2 gusting 4 35.0
2020-Aug-14 10:15 035 1 gusting 4 35.6
2020-Aug-14 10:05 108 0 gusting 2 36.1
2020-Aug-14 10:00 198 0 gusting 2 35.6
2020-Aug-14 09:55 028 0 gusting 1 35.6
2020-Aug-14 09:45 038 1 gusting 2 33.9
2020-Aug-14 09:36 020 3 gusting 5 34.4
2020-Aug-14 09:30 285 0 gusting 1 34.4
2020-Aug-14 09:25 261 0 gusting 1 34.4
2020-Aug-14 09:20 022 1 gusting 2 33.9
2020-Aug-14 09:15 272 1 gusting 5 33.9
2020-Aug-14 09:05 265 33.9
2020-Aug-14 09:00 023 0 gusting 2 33.3
2020-Aug-14 08:55 032 0 gusting 2 32.8
2020-Aug-14 08:50 026 1 gusting 4 32.8
2020-Aug-14 08:45 027 2 gusting 4 33.3
2020-Aug-14 08:35 013 1 gusting 6 32.8
2020-Aug-14 08:30 025 1 gusting 6 32.8
2020-Aug-14 08:25 029 1 gusting 4 32.8
2020-Aug-14 08:20 022 1 gusting 4 32.8
2020-Aug-14 08:15 024 0 gusting 2 32.8
2020-Aug-14 08:10 086 0 gusting 1 32.2
2020-Aug-14 08:05 032 2 gusting 4 32.2
2020-Aug-14 08:00 029 1 gusting 4 32.8
2020-Aug-14 07:55 207 32.2
2020-Aug-14 07:50 224 0 gusting 2 32.2
2020-Aug-14 07:45 021 0 gusting 2 31.7
2020-Aug-14 07:35 025 1 gusting 2 31.7
2020-Aug-14 07:30 022 1 gusting 1 31.7
2020-Aug-14 07:25 032 0 gusting 1 32.2
2020-Aug-14 07:15 237 31.7
2020-Aug-14 07:10 220 0 gusting 1 31.1
2020-Aug-14 07:05 309 0 gusting 1 31.1
2020-Aug-14 07:00 254 0 gusting 1 31.1
2020-Aug-14 06:55 027 31.1
2020-Aug-14 06:45 256 0 gusting 1 30.0
2020-Aug-14 06:40 256 30.0
2020-Aug-14 06:35 256 30.0
2020-Aug-14 06:30 256 29.4
2020-Aug-14 06:25 260 29.4
2020-Aug-14 06:20 260 28.9
2020-Aug-14 06:15 261 28.3
2020-Aug-14 06:10 225 0 gusting 1 28.3
2020-Aug-14 06:05 205 27.8
2020-Aug-14 05:55 223 26.7
2020-Aug-14 05:45 172 0 gusting 2 26.1
2020-Aug-14 05:40 179 0 gusting 1 25.6
2020-Aug-14 05:35 212 1 gusting 1 25.0
2020-Aug-14 05:30 211 25.0
2020-Aug-14 05:25 197 0 gusting 2 24.4
2020-Aug-14 05:15 217 23.9
2020-Aug-14 05:10 217 0 gusting 1 23.9
2020-Aug-14 05:05 219 23.3
2020-Aug-14 04:55 174 0 gusting 0 23.9
2020-Aug-14 04:45 217 23.3
2020-Aug-14 04:40 217 0 gusting 0 23.9
2020-Aug-14 04:35 217 0 gusting 2 23.9
2020-Aug-14 04:25 295 24.4
2020-Aug-14 04:20 324 24.4
2020-Aug-14 04:15 318 24.4
2020-Aug-14 04:10 293 0 gusting 2 24.4
2020-Aug-14 04:05 310 1 gusting 2 24.4
2020-Aug-14 04:00 297 1 gusting 2 24.4
2020-Aug-14 03:55 345 1 gusting 4 24.4
2020-Aug-14 03:50 327 1 gusting 4 24.4
2020-Aug-14 03:45 031 0 gusting 2 24.4
2020-Aug-14 03:35 357 25.0
2020-Aug-14 03:30 328 0 gusting 1 25.0
2020-Aug-14 03:25 285 25.0
2020-Aug-14 03:20 217 25.0
2020-Aug-14 03:15 217 25.0
2020-Aug-14 03:10 217 25.0
2020-Aug-14 03:05 215 25.0
2020-Aug-14 03:00 211 25.0
2020-Aug-14 02:55 222 0 gusting 1 25.0
2020-Aug-14 02:50 227 25.0
2020-Aug-14 02:45 221 24.4
2020-Aug-14 02:40 219 24.4
2020-Aug-14 02:35 217 24.4
2020-Aug-14 02:25 207 23.9
2020-Aug-14 02:20 207 23.9
2020-Aug-14 02:15 207 23.9
2020-Aug-14 02:05 207 23.9
2020-Aug-14 02:00 193 23.9
2020-Aug-14 01:55 193 23.9
2020-Aug-14 01:45 193 24.4
2020-Aug-14 01:40 193 24.4
2020-Aug-14 01:30 193 25.0
2020-Aug-14 01:25 192 25.0
2020-Aug-14 01:20 191 25.0
2020-Aug-14 01:10 216 0 gusting 1 25.0
2020-Aug-14 01:05 219 0 gusting 1 25.0
2020-Aug-14 01:00 210 25.0
2020-Aug-14 00:55 213 0 gusting 1 25.0
2020-Aug-14 00:50 257 0 gusting 1 25.0
2020-Aug-14 00:45 201 25.0
2020-Aug-14 00:40 201 24.4
2020-Aug-14 00:35 142 25.0
2020-Aug-14 00:30 216 24.4
2020-Aug-14 00:25 195 25.0
2020-Aug-14 00:20 205 24.4
2020-Aug-14 00:15 205 24.4
2020-Aug-14 00:10 196 0 gusting 0 24.4
2020-Aug-14 00:00 191 0 gusting 1 24.4
2020-Aug-13 23:05 195 24.4
2020-Aug-13 22:55 195 0 gusting 1 24.4
2020-Aug-13 22:50 198 0 gusting 1 24.4
2020-Aug-13 22:45 222 0 gusting 1 24.4
2020-Aug-13 22:40 222 24.4
2020-Aug-13 22:35 222 24.4
2020-Aug-13 22:30 222 24.4
2020-Aug-13 22:25 223 24.4
2020-Aug-13 22:20 223 24.4
2020-Aug-13 22:15 223 0 gusting 1 24.4
2020-Aug-13 22:10 212 0 gusting 1 24.4
2020-Aug-13 22:05 224 0 gusting 0 24.4
2020-Aug-13 22:00 224 0 gusting 1 24.4
2020-Aug-13 21:55 226 0 gusting 1 25.0
2020-Aug-13 21:50 228 0 gusting 2 25.0
2020-Aug-13 21:40 224 0 gusting 2 24.4
2020-Aug-13 21:35 218 1 gusting 2 25.0
2020-Aug-13 21:30 213 0 gusting 2 25.0
2020-Aug-13 21:25 206 1 gusting 2 25.0
2020-Aug-13 21:20 211 25.0
2020-Aug-13 21:15 209 0 gusting 1 25.0
2020-Aug-13 21:10 198 25.6
2020-Aug-13 21:05 183 25.6
2020-Aug-13 21:00 217 25.6
2020-Aug-13 20:55 217 0 gusting 1 25.6
2020-Aug-13 20:45 204 1 gusting 2 25.6
2020-Aug-13 20:40 213 0 gusting 2 25.6
2020-Aug-13 20:35 210 0 gusting 2 25.6
2020-Aug-13 20:25 218 0 gusting 2 25.6
2020-Aug-13 20:20 211 0 gusting 2 25.6
2020-Aug-13 20:15 216 0 gusting 1 25.6
2020-Aug-13 20:10 199 0 gusting 2 25.6
2020-Aug-13 20:05 217 1 gusting 2 25.6
2020-Aug-13 19:55 216 0 gusting 2 25.6
2020-Aug-13 19:45 211 0 gusting 1 25.6
2020-Aug-13 19:35 208 1 gusting 2 25.6
2020-Aug-13 19:30 207 1 gusting 2 26.1
2020-Aug-13 19:25 177 26.1
2020-Aug-13 19:20 223 0 gusting 1 26.1
2020-Aug-13 19:10 229 26.1
2020-Aug-13 19:05 203 0 gusting 1 26.1
2020-Aug-13 19:00 207 0 gusting 1 26.1